This is the latest recevied weather packets stored in our database for station/object K5OLV. If no packets are shown the sender has not sent any weather packets the latest 10 day(s).
| Time | Temp. | Humidity | Pressure | Rain* | Wind** | Luminosity | Snow |
|---|---|---|---|---|---|---|---|
| 1788529177 | 30° C | 72% | 1016.7 hPa | 0 mm | - | 291 W/m² | - |
| 1788528872 | 28.89° C | 75% | 1016.5 hPa | 0 mm | - | 278 W/m² | - |
| 1788528568 | 28.33° C | 77% | 1016.5 hPa | 0 mm | - | 264 W/m² | - |
| 1788528263 | 27.22° C | 81% | 1016.5 hPa | 0 mm | - | 233 W/m² | - |
| 1788527962 | 26.67° C | 84% | 1016.6 hPa | 0 mm | - | 221 W/m² | - |
| 1788527658 | 26.11° C | 85% | 1016.6 hPa | 0 mm | - | 206 W/m² | - |
| 1788527354 | 26.11° C | 86% | 1016.4 hPa | 0 mm | - | 190 W/m² | - |
| 1788527052 | 25° C | 88% | 1016.2 hPa | 0 mm | - | 123 W/m² | - |
| 1788526747 | 24.44° C | 91% | 1016.3 hPa | 0 mm | - | 60 W/m² | - |
| 1788526444 | 24.44° C | 91% | 1016.5 hPa | 0 mm | - | 62 W/m² | - |
| 1788526143 | 24.44° C | 91% | 1016.5 hPa | 0 mm | - | 58 W/m² | - |
| 1788525840 | 23.89° C | 91% | 1016.3 hPa | 0 mm | - | 54 W/m² | - |
| 1788525534 | 23.89° C | 92% | 1016.2 hPa | 0 mm | - | 52 W/m² | - |
| 1788525230 | 23.89° C | 92% | 1016.4 hPa | 0 mm | - | 49 W/m² | - |
| 1788524925 | 23.89° C | 92% | 1016.2 hPa | 0 mm | - | 46 W/m² | - |
| 1788524624 | 23.33° C | 93% | 1016.2 hPa | 0 mm | - | 43 W/m² | - |
| 1788524319 | 23.33° C | 94% | 1016.3 hPa | 0 mm | - | 41 W/m² | - |
| 1788524016 | 22.78° C | 94% | 1016.3 hPa | 0 mm | - | 38 W/m² | - |
| 1788523712 | 22.78° C | 94% | 1016.1 hPa | 0 mm | - | 35 W/m² | - |
| 1788523407 | 22.78° C | 94% | 1016.2 hPa | 0 mm | - | 32 W/m² | - |
| 1788523102 | 22.78° C | 94% | 1016 hPa | 0 mm | - | 28 W/m² | - |
| 1788522798 | 22.78° C | 94% | 1016 hPa | 0 mm | - | 25 W/m² | - |
| 1788522498 | 22.78° C | 93% | 1016.2 hPa | 0 mm | - | 22 W/m² | - |
| 1788522192 | 22.78° C | 93% | 1016 hPa | 0 mm | - | 18 W/m² | - |
| 1788521888 | 22.78° C | 93% | 1016 hPa | 0 mm | - | 13 W/m² | - |
* Rain latest hour (hover to see other rain measurements)
** Current wind speed in m/s (hover to see current wind gust speed)